Bei Facebook empfehlenBei Twitter postenGoogle plusPinterest

Das Wetter im Erzgebirge am 14.03.2015

Wetter und Klima am 14.03.2015 Holzhau im Erzgebirge (630m ü.NN)
Letzte gemessene Temperatur und Uhrzeit der Messung23:45:00 Uhr-0.10 °C
Temperatur (Maximum / Höchstwert) und Uhrzeit der Messung13:45:00 Uhr2.30 °C
Temperatur (Minimum / Tiefstwert) und Uhrzeit der Messung03:30:00-0.40 °C
Errechneter Absolutwert der Temperaturschwankungen zwischen Tmin und Tmax des Tages2.70 K
Errechnete Tagesmitteltemperatur0.55417 °C
Gesamt - Niederschlag des Tages (in flüssiger Form)1.03 Liter / m²
Luftdruck (Maximum / Höchstwert) und Zeitpunkt der Messung21:00:00 Uhr1022.30 hPa
Luftdruck (Minimum / Tiefstwert) und Zeitpunkt der Messung05:00:00 Uhr1019.40 hPa
Errechneter Absolutwert der Luftdruckschwankungen des Tages2.90 hPa
Höchste gemessene Windgeschwindigkeit und Uhrzeit der Messung15:15:00 Uhr10.80 km/h
Errechnete Windhäufigkeit in Relation zu den Messwerten des Tages6.25000 %
Niedrigste Windkühle (Windchill) und Zeitpunkt der Messung15:15:00 Uhr-2.00 °C
Taupunkt (Maximum / Höchstwert) und Uhrzeit der Messung13:45:00 Uhr0.50 °C
Taupunkt (Minimum / Tiefstwert) und Uhrzeit der Messung02:30:00-1.70 °C
Anzahl der automatisch eingelesenen Messwerte 96

Detaillierte Wetter- und Klima- Messwerte für den 14.03.2015 in Holzhau im Erzgebirge (630m ü.NN)
ZeitTemperaturLuftdruckRel. LuftfeuchteWindWindrichtungWindchillTaupunktNiederschlag l/m²
23:45:00-0.10 °C1021.90 hPa92.00 %-1.40 °C1.03
23:30:00-0.10 °C1021.90 hPa92.00 %-1.40 °C1.03
23:15:00-0.10 °C1021.90 hPa92.00 %-1.40 °C1.03
23:00:000.00 °C1021.90 hPa92.00 %-1.30 °C1.03
22:45:000.10 °C1021.80 hPa92.00 %-1.00 °C1.03
22:30:000.10 °C1022.00 hPa92.00 %-1.00 °C1.03
22:15:000.10 °C1022.00 hPa92.00 %-1.00 °C1.03
22:00:000.30 °C1021.90 hPa92.00 %-0.80 °C1.03
21:45:000.30 °C1021.90 hPa92.00 %-0.80 °C1.03
21:30:000.30 °C1022.00 hPa92.00 %-0.80 °C1.03
21:15:000.30 °C1022.10 hPa92.00 %-0.80 °C1.03
21:00:000.40 °C1022.30 hPa92.00 %-0.70 °C1.03
20:45:000.40 °C1022.30 hPa92.00 %-0.70 °C1.03
20:30:000.40 °C1022.10 hPa92.00 %-0.70 °C1.03
20:15:000.40 °C1022.30 hPa92.00 %-0.70 °C1.03
20:00:000.40 °C1022.20 hPa92.00 %-0.70 °C1.03
19:45:000.40 °C1022.30 hPa92.00 %-0.70 °C1.03
19:30:000.40 °C1022.20 hPa92.00 %-0.70 °C1.03
19:15:000.40 °C1022.00 hPa92.00 %-0.70 °C1.03
19:00:000.50 °C1022.10 hPa91.00 %-0.80 °C1.03
18:45:000.50 °C1022.00 hPa91.00 %-0.80 °C1.03
18:30:000.60 °C1021.90 hPa91.00 %-0.70 °C1.03
18:15:000.60 °C1022.00 hPa91.00 %-0.70 °C1.03
18:00:000.60 °C1021.80 hPa91.00 %-0.70 °C1.03
17:45:000.70 °C1021.60 hPa91.00 %-0.60 °C1.03
17:30:000.80 °C1021.50 hPa91.00 %-0.50 °C1.03
17:15:000.80 °C1021.30 hPa91.00 %-0.50 °C1.03
17:00:000.90 °C1021.40 hPa91.00 %-0.40 °C1.03
16:45:000.90 °C1021.30 hPa91.00 %-0.40 °C1.03
16:30:000.90 °C1021.30 hPa91.00 %-0.40 °C1.03
16:15:000.80 °C1021.20 hPa90.00 %-0.60 °C1.03
16:00:000.90 °C1021.10 hPa90.00 %-0.50 °C1.03
15:45:001.10 °C1021.10 hPa89.00 %-0.50 °C1.03
15:30:001.30 °C1021.00 hPa89.00 %-0.30 °C1.03
15:15:001.30 °C1021.00 hPa89.00 %10.80 km/hOSO-2.00 °C-0.30 °C1.03
15:00:001.60 °C1020.80 hPa88.00 %5.76 km/hSO-0.10 °C-0.20 °C1.03
14:45:001.90 °C1020.60 hPa88.00 %6.48 km/hSO0.00 °C0.10 °C1.03
14:30:001.80 °C1020.50 hPa88.00 %0.00 °C1.03
14:15:001.80 °C1020.50 hPa88.00 %0.00 °C1.03
14:00:002.20 °C1020.40 hPa88.00 %0.40 °C1.03
13:45:002.30 °C1020.40 hPa88.00 %0.50 °C1.03
13:30:002.30 °C1020.50 hPa88.00 %0.50 °C1.03
13:15:001.90 °C1020.40 hPa88.00 %0.10 °C1.03
13:00:001.90 °C1020.30 hPa88.00 %4.68 km/hOSO1.90 °C0.10 °C1.03
12:45:001.90 °C1020.40 hPa88.00 %0.10 °C1.03
12:30:001.90 °C1020.40 hPa88.00 %0.10 °C1.03
12:15:002.10 °C1020.40 hPa88.00 %0.30 °C1.03
12:00:001.80 °C1020.40 hPa88.00 %0.00 °C1.03
11:45:001.80 °C1020.30 hPa89.00 %0.20 °C1.03
11:30:001.40 °C1020.20 hPa89.00 %-0.20 °C1.03
11:15:001.30 °C1020.20 hPa89.00 %-0.30 °C0.51
11:00:001.30 °C1020.20 hPa89.00 %3.24 km/hSO1.30 °C-0.30 °C0.51
10:45:001.40 °C1020.20 hPa90.00 %-0.10 °C0.51
10:30:001.10 °C1020.20 hPa90.00 %-0.40 °C0.51
10:15:001.30 °C1020.00 hPa90.00 %-0.20 °C 
10:00:001.20 °C1020.10 hPa91.00 %-0.10 °C 
09:45:001.20 °C1020.10 hPa91.00 %-0.10 °C 
09:30:001.00 °C1020.10 hPa92.00 %-0.10 °C 
09:15:001.00 °C1020.00 hPa92.00 %5.76 km/hSSO-0.80 °C-0.10 °C 
09:00:001.10 °C1020.00 hPa92.00 %-0.10 °C 
08:45:001.20 °C1019.90 hPa93.00 %0.20 °C 
08:30:001.10 °C1019.80 hPa93.00 %0.10 °C 
08:15:000.90 °C1019.80 hPa93.00 %-0.10 °C 
08:00:000.50 °C1019.80 hPa93.00 %-0.50 °C 
07:45:000.30 °C1019.70 hPa93.00 %-0.70 °C 
07:30:000.10 °C1020.00 hPa93.00 %-0.90 °C 
07:15:00-0.10 °C1019.70 hPa93.00 %-1.20 °C 
07:00:00-0.20 °C1019.90 hPa93.00 %-1.30 °C 
06:45:00-0.20 °C1019.90 hPa93.00 %-1.30 °C 
06:30:00-0.20 °C1019.80 hPa93.00 %-1.30 °C 
06:15:00-0.20 °C1019.80 hPa93.00 %-1.30 °C 
06:00:00-0.20 °C1019.80 hPa93.00 %-1.30 °C 
05:45:00-0.20 °C1019.60 hPa93.00 %-1.30 °C 
05:30:00-0.20 °C1019.70 hPa93.00 %-1.30 °C 
05:15:00-0.20 °C1019.70 hPa93.00 %-1.30 °C 
05:00:00-0.20 °C1019.40 hPa93.00 %-1.30 °C 
04:45:00-0.20 °C1019.50 hPa93.00 %-1.30 °C 
04:30:00-0.20 °C1019.60 hPa93.00 %-1.30 °C 
04:15:00-0.20 °C1019.60 hPa93.00 %-1.30 °C 
04:00:00-0.20 °C1019.70 hPa93.00 %-1.30 °C 
03:45:00-0.30 °C1019.60 hPa93.00 %-1.40 °C 
03:30:00-0.40 °C1019.70 hPa93.00 %-1.50 °C 
03:15:00-0.40 °C1019.60 hPa93.00 %-1.50 °C 
03:00:00-0.40 °C1019.80 hPa93.00 %-1.50 °C 
02:45:00-0.40 °C1019.50 hPa93.00 %-1.50 °C 
02:30:00-0.40 °C1019.60 hPa92.00 %-1.70 °C 
02:15:00-0.40 °C1019.60 hPa92.00 %-1.70 °C 
02:00:00-0.40 °C1019.70 hPa92.00 %-1.70 °C 
01:45:00-0.40 °C1019.70 hPa92.00 %-1.70 °C 
01:30:00-0.40 °C1019.70 hPa92.00 %-1.70 °C 
01:15:00-0.40 °C1019.70 hPa92.00 %-1.70 °C 
01:00:00-0.40 °C1019.70 hPa92.00 %-1.70 °C 
00:45:00-0.40 °C1019.80 hPa92.00 %-1.70 °C 
00:30:00-0.40 °C1020.00 hPa92.00 %-1.70 °C 
00:15:00-0.40 °C1020.20 hPa92.00 %-1.70 °C 
00:00:00-0.40 °C1020.20 hPa92.00 %-1.70 °C 

Permanenter Link zu dieser Seite: Wetter im Erzgebirge am 14.03.2015
Performance-Info: Die Erstellung der Seite / Statistik(en) / Tabelle(n) erforderte 5 Datenbankserver-Abfrage(n) und dauerte 100 Millisekunden. (Dieser Messwert ist von der Gesamt-Auslastung des Servers abhängig.)
Erzgebirge - Wetter | Erzgebirge - Wetter (Mobilgeräte) | Komplette Klimadatenbank